createdAt,value
2019-02-04T00:00:31.917Z,99.90
2019-02-04T00:03:00.620Z,99.90
2019-02-04T00:05:28.644Z,99.90
2019-02-04T00:07:56.797Z,99.90
2019-02-04T00:10:24.866Z,99.90
2019-02-04T00:12:52.927Z,99.90
2019-02-04T00:15:21.408Z,99.90
2019-02-04T00:17:52.625Z,99.90
2019-02-04T00:20:20.809Z,99.90
2019-02-04T00:22:48.840Z,99.90
2019-02-04T00:25:17.023Z,99.90
2019-02-04T00:27:45.103Z,99.90
2019-02-04T00:30:14.355Z,99.90
2019-02-04T00:32:42.270Z,99.90
2019-02-04T00:35:10.342Z,99.90
2019-02-04T00:37:38.211Z,99.90
2019-02-04T00:40:07.224Z,99.90
2019-02-04T00:42:35.143Z,99.90
2019-02-04T00:45:04.502Z,99.90
2019-02-04T00:47:32.420Z,99.90
2019-02-04T00:50:00.330Z,99.90
2019-02-04T00:52:28.355Z,99.90
2019-02-04T00:54:56.325Z,99.90
2019-02-04T00:57:24.230Z,99.90
2019-02-04T00:59:52.227Z,99.90
2019-02-04T01:02:20.379Z,99.90
2019-02-04T01:04:48.367Z,99.90
2019-02-04T01:07:16.377Z,99.90
2019-02-04T01:09:44.386Z,99.90
2019-02-04T01:12:12.382Z,99.90
2019-02-04T01:14:40.327Z,99.90
2019-02-04T01:17:08.783Z,99.90
2019-02-04T01:19:36.677Z,99.90
2019-02-04T01:22:04.723Z,99.90
2019-02-04T01:24:32.711Z,99.90
2019-02-04T01:27:00.733Z,99.90
2019-02-04T01:29:28.727Z,99.90
2019-02-04T01:31:56.656Z,99.90
2019-02-04T01:34:24.601Z,99.90
2019-02-04T01:36:52.685Z,99.90
2019-02-04T01:39:21.296Z,99.90
2019-02-04T01:41:52.438Z,99.90
2019-02-04T01:44:20.898Z,99.90
2019-02-04T01:46:51.466Z,99.90
2019-02-04T01:49:19.413Z,99.90
2019-02-04T01:51:48.081Z,99.90
2019-02-04T01:54:17.161Z,99.90
2019-02-04T01:56:45.651Z,99.90
2019-02-04T01:59:14.459Z,99.90
2019-02-04T02:01:42.846Z,99.90
2019-02-04T02:04:11.556Z,99.90
2019-02-04T02:06:39.611Z,99.90
2019-02-04T02:09:09.795Z,99.90
2019-02-04T02:11:37.699Z,99.90
2019-02-04T02:14:06.774Z,99.90
2019-02-04T02:16:34.781Z,99.90
2019-02-04T02:19:02.753Z,99.90
2019-02-04T02:21:30.954Z,99.90
2019-02-04T02:24:01.139Z,99.90
2019-02-04T02:26:29.189Z,99.90
2019-02-04T02:28:57.488Z,99.90
2019-02-04T02:31:25.361Z,99.90
2019-02-04T02:33:53.534Z,99.90
2019-02-04T02:36:21.530Z,99.90
2019-02-04T02:38:49.640Z,99.90
2019-02-04T02:41:17.567Z,99.90
2019-02-04T02:43:45.481Z,99.90
2019-02-04T02:46:13.433Z,99.90
2019-02-04T02:48:43.038Z,99.90
2019-02-04T02:51:11.901Z,99.90
2019-02-04T02:53:39.954Z,99.90
2019-02-04T02:56:07.963Z,99.90
2019-02-04T02:58:35.922Z,99.90
2019-02-04T03:01:03.954Z,99.90
2019-02-04T03:03:35.172Z,99.90
2019-02-04T03:06:03.253Z,99.90
2019-02-04T03:08:31.259Z,99.90
2019-02-04T03:10:59.215Z,99.90
2019-02-04T03:13:27.199Z,99.90
2019-02-04T03:15:55.229Z,99.90
2019-02-04T03:18:23.166Z,99.90
2019-02-04T03:20:51.361Z,99.90
2019-02-04T03:23:19.355Z,99.90
2019-02-04T03:25:47.291Z,99.90
2019-02-04T03:28:15.341Z,99.90
2019-02-04T03:30:43.593Z,99.90
2019-02-04T03:33:11.987Z,99.90
2019-02-04T03:35:40.205Z,99.90
2019-02-04T03:38:08.139Z,99.90
2019-02-04T03:40:36.126Z,99.90
2019-02-04T03:43:04.096Z,99.90
2019-02-04T03:45:32.011Z,99.90
2019-02-04T03:48:07.008Z,99.90
2019-02-04T03:50:29.809Z,99.90
2019-02-04T03:52:57.771Z,99.90
2019-02-04T03:55:25.707Z,99.90
2019-02-04T03:57:53.726Z,99.90
2019-02-04T04:00:23.060Z,99.90
2019-02-04T04:02:53.154Z,99.90
2019-02-04T04:05:20.891Z,99.90
2019-02-04T04:07:48.828Z,99.90
2019-02-04T04:10:17.103Z,99.90
2019-02-04T04:12:45.055Z,99.90
2019-02-04T04:15:13.270Z,99.90
2019-02-04T04:17:41.259Z,99.90
2019-02-04T04:20:10.467Z,99.90
2019-02-04T04:22:39.326Z,99.90
2019-02-04T04:25:08.128Z,99.90
2019-02-04T04:27:36.050Z,99.90
2019-02-04T04:30:05.102Z,99.90
2019-02-04T04:32:33.133Z,99.90
2019-02-04T04:35:01.109Z,99.90
2019-02-04T04:37:29.446Z,99.90
2019-02-04T04:39:57.456Z,99.90
2019-02-04T04:42:25.475Z,99.90
2019-02-04T04:44:53.471Z,99.90
2019-02-04T04:47:21.456Z,99.90
2019-02-04T04:49:49.363Z,99.90
2019-02-04T04:52:17.316Z,99.90
2019-02-04T04:54:45.210Z,99.90
2019-02-04T04:57:13.175Z,99.90
2019-02-04T04:59:41.134Z,99.90
2019-02-04T05:02:09.222Z,99.90
2019-02-04T05:04:37.207Z,99.90
2019-02-04T05:07:05.164Z,99.90
2019-02-04T05:09:33.433Z,99.90
2019-02-04T05:12:01.389Z,99.90
2019-02-04T05:14:29.364Z,99.90
2019-02-04T05:16:57.317Z,99.90
2019-02-04T05:19:25.201Z,99.90
2019-02-04T05:21:53.193Z,99.90
2019-02-04T05:24:21.183Z,99.90
2019-02-04T05:26:49.069Z,99.90
2019-02-04T05:29:17.000Z,99.90
2019-02-04T05:31:44.875Z,99.90
2019-02-04T05:34:12.855Z,99.90
2019-02-04T05:36:40.881Z,99.90
2019-02-04T05:39:08.860Z,99.90
2019-02-04T05:41:37.234Z,99.90
2019-02-04T05:44:05.286Z,99.90
2019-02-04T05:46:33.362Z,99.90
2019-02-04T05:49:01.302Z,99.90
2019-02-04T05:51:29.316Z,99.90
2019-02-04T05:53:57.225Z,99.90
2019-02-04T05:56:25.331Z,99.90
2019-02-04T05:58:53.276Z,99.90
2019-02-04T06:01:21.241Z,99.90
2019-02-04T06:03:49.338Z,99.90
2019-02-04T06:06:17.314Z,99.90
2019-02-04T06:08:45.292Z,99.90
2019-02-04T06:11:13.222Z,99.90
2019-02-04T06:13:41.481Z,99.90
2019-02-04T06:16:09.404Z,99.90
2019-02-04T06:18:37.376Z,99.90
2019-02-04T06:21:05.242Z,99.90
2019-02-04T06:23:33.176Z,99.90
2019-02-04T06:26:01.144Z,99.90
2019-02-04T06:28:29.204Z,99.90
2019-02-04T06:30:57.151Z,99.90
2019-02-04T06:33:25.155Z,99.90
2019-02-04T06:35:53.227Z,99.90
2019-02-04T06:38:21.260Z,99.90
2019-02-04T06:40:49.284Z,99.90
2019-02-04T06:43:17.227Z,99.90
2019-02-04T06:45:45.994Z,99.90
2019-02-04T06:48:14.265Z,99.90
2019-02-04T06:50:47.326Z,99.90
2019-02-04T06:53:15.287Z,99.90
2019-02-04T06:55:43.200Z,99.90
2019-02-04T06:58:11.157Z,99.90
2019-02-04T07:00:39.154Z,99.90
2019-02-04T07:03:07.123Z,99.90
2019-02-04T07:05:43.569Z,99.90
2019-02-04T07:08:05.022Z,99.90
2019-02-04T07:10:32.894Z,99.90
2019-02-04T07:13:00.766Z,99.90
2019-02-04T07:15:28.681Z,99.90
2019-02-04T07:18:01.533Z,99.90
2019-02-04T07:20:28.181Z,99.90
2019-02-04T07:22:56.319Z,99.90
2019-02-04T07:25:24.478Z,99.90
2019-02-04T07:27:52.484Z,99.90
2019-02-04T07:30:26.883Z,99.90
2019-02-04T07:32:55.232Z,99.90
2019-02-04T07:35:23.319Z,99.90
2019-02-04T07:37:51.412Z,99.90
2019-02-04T07:40:20.620Z,99.90
2019-02-04T07:42:48.724Z,99.90
2019-02-04T07:45:16.730Z,99.90
2019-02-04T07:47:44.900Z,99.90
2019-02-04T07:50:13.092Z,99.90
2019-02-04T07:52:41.050Z,99.90
2019-02-04T07:55:09.407Z,99.90
2019-02-04T07:57:37.508Z,99.90
2019-02-04T08:00:08.084Z,99.90
2019-02-04T08:02:36.045Z,99.90
2019-02-04T08:05:04.296Z,99.90
2019-02-04T08:07:32.170Z,99.90
2019-02-04T08:10:00.364Z,99.90
2019-02-04T08:12:28.306Z,99.90
2019-02-04T08:14:56.244Z,99.90
2019-02-04T08:17:24.363Z,99.90
2019-02-04T08:19:52.651Z,99.90
2019-02-04T08:22:26.666Z,99.90
2019-02-04T08:24:54.717Z,99.90
2019-02-04T08:27:22.723Z,99.90
2019-02-04T08:29:50.624Z,99.90
2019-02-04T08:32:18.537Z,99.90
2019-02-04T08:34:46.990Z,99.90
2019-02-04T08:37:14.977Z,99.90
2019-02-04T08:39:42.878Z,99.90
2019-02-04T08:42:10.911Z,99.90
2019-02-04T08:44:38.839Z,99.90
2019-02-04T08:47:06.812Z,99.90
2019-02-04T08:49:34.793Z,99.90
2019-02-04T08:52:03.263Z,99.90
2019-02-04T08:54:31.219Z,99.90
2019-02-04T08:56:59.299Z,99.90
2019-02-04T08:59:27.395Z,99.90
2019-02-04T09:01:55.515Z,99.90
2019-02-04T09:04:23.581Z,99.90
2019-02-04T09:06:51.561Z,99.90
2019-02-04T09:09:19.584Z,99.90
2019-02-04T09:11:47.482Z,99.90
2019-02-04T09:14:15.518Z,99.90
2019-02-04T09:16:43.419Z,99.90
2019-02-04T09:19:11.467Z,99.90
2019-02-04T09:21:39.367Z,99.90
2019-02-04T09:24:07.270Z,99.90
2019-02-04T09:26:35.385Z,99.90
2019-02-04T09:29:03.427Z,99.90
2019-02-04T09:31:31.347Z,99.90
2019-02-04T09:33:59.492Z,99.90
2019-02-04T09:36:27.488Z,99.90
2019-02-04T09:38:55.519Z,99.90
2019-02-04T09:41:23.489Z,99.90
2019-02-04T09:43:51.461Z,99.90
2019-02-04T09:46:19.428Z,99.90
2019-02-04T09:48:47.387Z,99.90
2019-02-04T09:51:15.378Z,99.90
2019-02-04T09:53:43.452Z,99.90
2019-02-04T09:56:12.140Z,99.90
2019-02-04T09:58:40.112Z,99.90
2019-02-04T10:01:08.185Z,99.90
2019-02-04T10:03:36.256Z,99.90
2019-02-04T10:06:04.311Z,99.90
2019-02-04T10:08:32.373Z,99.90
2019-02-04T10:11:00.340Z,99.90
2019-02-04T10:13:28.334Z,99.90
2019-02-04T10:15:56.293Z,99.90
2019-02-04T10:18:24.301Z,99.90
2019-02-04T10:20:52.346Z,99.90
2019-02-04T10:23:20.398Z,99.90
2019-02-04T10:25:48.355Z,99.90
2019-02-04T10:28:16.450Z,99.90
2019-02-04T10:30:44.523Z,99.90
2019-02-04T10:33:13.054Z,99.90
2019-02-04T10:35:41.304Z,99.90
2019-02-04T10:38:09.506Z,99.90
2019-02-04T10:40:37.644Z,99.90
2019-02-04T10:43:05.680Z,99.90
2019-02-04T10:45:33.649Z,99.90
2019-02-04T10:48:01.715Z,99.90
2019-02-04T10:50:30.796Z,99.90
2019-02-04T10:52:58.826Z,95.30
2019-02-04T10:55:26.848Z,90.80
2019-02-04T10:57:54.998Z,90.00
2019-02-04T11:00:25.308Z,90.10
2019-02-04T11:02:53.555Z,87.10
2019-02-04T11:05:23.180Z,83.70
2019-02-04T11:07:51.151Z,82.70
2019-02-04T11:10:20.815Z,76.50
2019-02-04T11:12:48.845Z,71.00
2019-02-04T11:15:16.968Z,68.00
2019-02-04T11:17:44.990Z,62.90
2019-02-04T11:20:16.273Z,61.60
2019-02-04T11:22:44.272Z,63.70
2019-02-04T11:25:12.516Z,59.00
2019-02-04T11:27:40.660Z,58.90
2019-02-04T11:30:12.641Z,54.90
2019-02-04T11:32:40.674Z,54.00
2019-02-04T11:35:09.304Z,52.50
2019-02-04T11:37:37.278Z,54.00
2019-02-04T11:40:06.028Z,56.40
2019-02-04T11:42:34.055Z,58.90
2019-02-04T11:45:02.088Z,61.40
2019-02-04T11:47:30.320Z,64.70
2019-02-04T11:49:58.569Z,71.40
2019-02-04T11:52:26.837Z,84.50
2019-02-04T11:54:54.821Z,92.20
2019-02-04T11:57:22.844Z,95.80
2019-02-04T11:59:50.772Z,99.90
2019-02-04T12:02:18.940Z,99.90
2019-02-04T12:04:46.996Z,99.90
2019-02-04T12:07:15.401Z,99.90
2019-02-04T12:09:43.334Z,99.90
2019-02-04T12:12:11.376Z,99.90
2019-02-04T12:14:39.379Z,99.90
2019-02-04T12:17:07.353Z,99.90
2019-02-04T12:19:35.428Z,99.90
2019-02-04T12:22:03.449Z,99.90
2019-02-04T12:24:31.756Z,99.90
2019-02-04T12:26:59.741Z,99.90
2019-02-04T12:29:27.794Z,99.90
2019-02-04T12:31:55.777Z,99.90
2019-02-04T12:34:23.819Z,99.90
2019-02-04T12:36:52.071Z,99.90
2019-02-04T12:39:22.260Z,99.90
2019-02-04T12:41:50.862Z,99.90
2019-02-04T12:44:19.032Z,99.90
2019-02-04T12:46:47.106Z,99.90
2019-02-04T12:49:15.128Z,99.90
2019-02-04T12:51:43.169Z,99.90
2019-02-04T12:54:11.174Z,99.90
2019-02-04T12:56:39.572Z,99.90
2019-02-04T12:59:07.641Z,99.90
2019-02-04T13:01:35.632Z,99.90
2019-02-04T13:04:03.977Z,99.90
2019-02-04T13:06:32.054Z,99.90
2019-02-04T13:09:00.051Z,99.90
2019-02-04T13:11:27.956Z,99.90
2019-02-04T13:13:55.859Z,99.90
2019-02-04T13:16:23.933Z,99.90
2019-02-04T13:18:51.857Z,99.90
2019-02-04T13:21:19.805Z,99.90
2019-02-04T13:23:50.004Z,99.90
2019-02-04T13:26:17.909Z,99.90
2019-02-04T13:28:46.168Z,99.90
2019-02-04T13:31:14.235Z,99.90
2019-02-04T13:33:42.263Z,99.90
2019-02-04T13:36:10.328Z,99.90
2019-02-04T13:38:38.222Z,99.90
2019-02-04T13:41:07.805Z,99.90
2019-02-04T13:43:35.973Z,99.90
2019-02-04T13:46:05.889Z,99.90
2019-02-04T13:48:33.608Z,99.90
2019-02-04T13:51:01.582Z,99.90
2019-02-04T13:53:29.556Z,99.90
2019-02-04T13:55:57.586Z,99.90
2019-02-04T13:58:25.675Z,99.90
2019-02-04T14:00:53.764Z,99.90
2019-02-04T14:03:21.769Z,99.90
2019-02-04T14:05:49.843Z,99.90
2019-02-04T14:08:17.797Z,99.90
2019-02-04T14:10:46.296Z,99.90
2019-02-04T14:13:14.578Z,99.90
2019-02-04T14:15:43.323Z,99.90
2019-02-04T14:18:11.360Z,99.90
2019-02-04T14:20:39.425Z,99.90
2019-02-04T14:23:07.507Z,99.90
2019-02-04T14:25:35.497Z,99.90
2019-02-04T14:28:04.177Z,99.90
2019-02-04T14:30:34.596Z,99.90
2019-02-04T14:33:02.793Z,99.90
2019-02-04T14:35:30.717Z,99.90
2019-02-04T14:37:58.868Z,99.90
2019-02-04T14:40:26.967Z,99.90
2019-02-04T14:42:59.698Z,99.90
2019-02-04T14:45:38.983Z,99.90
2019-02-04T14:48:19.125Z,99.90
2019-02-04T14:50:55.792Z,99.90
2019-02-04T14:53:31.468Z,99.90
2019-02-04T14:56:06.670Z,99.90
2019-02-04T14:58:40.455Z,99.90
2019-02-04T15:01:36.725Z,99.90
2019-02-04T15:04:10.635Z,99.90
2019-02-04T15:07:10.052Z,99.90
2019-02-04T15:09:45.467Z,99.90
2019-02-04T15:12:28.156Z,99.90
2019-02-04T15:15:18.207Z,99.90
2019-02-04T15:18:14.058Z,99.90
2019-02-04T15:21:01.846Z,99.90
2019-02-04T15:23:43.971Z,99.90
2019-02-04T15:26:29.848Z,99.90
2019-02-04T15:29:17.877Z,99.90
2019-02-04T15:31:49.993Z,99.90
2019-02-04T15:34:27.393Z,99.90
2019-02-04T15:37:02.316Z,99.90
2019-02-04T15:39:33.649Z,99.90
2019-02-04T15:42:31.673Z,99.90
2019-02-04T15:45:14.246Z,99.90
2019-02-04T15:47:47.510Z,99.90
2019-02-04T15:50:25.740Z,99.90
2019-02-04T15:52:53.800Z,99.90
2019-02-04T15:55:21.859Z,99.90
2019-02-04T15:57:49.869Z,99.90
2019-02-04T16:00:18.106Z,99.90
2019-02-04T16:02:46.247Z,99.90
2019-02-04T16:05:14.295Z,99.90
2019-02-04T16:07:42.467Z,99.90
2019-02-04T16:10:14.190Z,99.90
2019-02-04T16:12:42.264Z,99.90
2019-02-04T16:15:10.782Z,99.90
2019-02-04T16:17:38.856Z,99.90
2019-02-04T16:20:09.811Z,99.90
2019-02-04T16:22:37.885Z,99.90
2019-02-04T16:25:06.281Z,99.90
2019-02-04T16:27:34.287Z,99.90
2019-02-04T16:30:02.327Z,99.90
2019-02-04T16:32:30.353Z,99.90
2019-02-04T16:34:58.343Z,99.90
2019-02-04T16:37:26.487Z,99.90
2019-02-04T16:39:54.386Z,99.90
2019-02-04T16:42:22.297Z,99.90
2019-02-04T16:44:50.246Z,99.90
2019-02-04T16:47:18.282Z,99.90
2019-02-04T16:49:46.183Z,99.90
2019-02-04T16:52:14.118Z,99.90
2019-02-04T16:54:42.190Z,99.90
2019-02-04T16:57:10.348Z,99.90
2019-02-04T16:59:38.412Z,99.90
2019-02-04T17:02:06.473Z,99.90
2019-02-04T17:04:34.428Z,99.90
2019-02-04T17:07:02.707Z,99.90
2019-02-04T17:09:30.691Z,99.90
2019-02-04T17:11:59.124Z,99.90
2019-02-04T17:14:27.008Z,99.90
2019-02-04T17:16:54.961Z,99.90
2019-02-04T17:19:22.872Z,99.90
2019-02-04T17:21:51.123Z,99.90
2019-02-04T17:24:19.057Z,99.90
2019-02-04T17:26:47.343Z,99.90
2019-02-04T17:29:15.302Z,99.90
2019-02-04T17:31:43.301Z,99.90
2019-02-04T17:34:11.225Z,99.90
2019-02-04T17:36:39.202Z,99.90
2019-02-04T17:39:07.707Z,99.90
2019-02-04T17:41:35.811Z,99.90
2019-02-04T17:44:05.030Z,99.90
2019-02-04T17:46:33.023Z,99.90
2019-02-04T17:49:00.990Z,99.90
2019-02-04T17:51:31.812Z,99.90
2019-02-04T17:53:58.619Z,99.90
2019-02-04T17:56:26.539Z,99.90
2019-02-04T17:58:54.745Z,99.90
2019-02-04T18:01:22.839Z,99.90
2019-02-04T18:03:50.898Z,99.90
2019-02-04T18:06:18.913Z,99.90
2019-02-04T18:08:46.916Z,99.90
2019-02-04T18:11:14.824Z,99.90
2019-02-04T18:13:43.050Z,99.90
2019-02-04T18:16:11.240Z,99.90
2019-02-04T18:18:39.205Z,99.90
2019-02-04T18:21:07.140Z,99.90
2019-02-04T18:23:45.343Z,99.90
2019-02-04T18:26:04.855Z,99.90
2019-02-04T18:28:32.859Z,99.90
2019-02-04T18:31:00.983Z,99.90
2019-02-04T18:33:29.407Z,99.90
2019-02-04T18:35:57.376Z,99.90
2019-02-04T18:38:26.807Z,99.90
2019-02-04T18:40:55.062Z,99.90
2019-02-04T18:43:23.148Z,99.90
2019-02-04T18:45:51.125Z,99.90
2019-02-04T18:48:19.205Z,99.90
2019-02-04T18:50:47.651Z,99.90
2019-02-04T18:53:15.779Z,99.90
2019-02-04T18:55:43.811Z,99.90
2019-02-04T18:58:12.005Z,99.90
2019-02-04T19:00:42.704Z,99.90
2019-02-04T19:03:17.316Z,99.90
2019-02-04T19:06:05.376Z,99.90
2019-02-04T19:08:40.217Z,99.90
2019-02-04T19:11:08.177Z,99.90
2019-02-04T19:13:37.086Z,99.90
2019-02-04T19:16:05.227Z,99.90
2019-02-04T19:18:33.188Z,99.90
2019-02-04T19:21:01.549Z,99.90
2019-02-04T19:23:29.720Z,99.90
2019-02-04T19:25:58.040Z,99.90
2019-02-04T19:28:26.291Z,99.90
2019-02-04T19:30:59.317Z,99.90
2019-02-04T19:33:32.121Z,99.90
2019-02-04T19:36:03.307Z,99.90
2019-02-04T19:38:31.505Z,99.90
2019-02-04T19:40:59.763Z,99.90
2019-02-04T19:43:27.728Z,99.90
2019-02-04T19:45:55.877Z,99.90
2019-02-04T19:48:24.087Z,99.90
2019-02-04T19:50:52.076Z,99.90
2019-02-04T19:53:22.700Z,99.90
2019-02-04T19:55:49.771Z,99.90
2019-02-04T19:58:17.697Z,99.90
2019-02-04T20:00:45.780Z,99.90
2019-02-04T20:03:14.047Z,99.90
2019-02-04T20:05:42.977Z,99.90
2019-02-04T20:08:11.078Z,99.90
2019-02-04T20:10:39.300Z,99.90
2019-02-04T20:13:09.257Z,99.90
2019-02-04T20:15:37.643Z,99.90
2019-02-04T20:18:05.956Z,99.90
2019-02-04T20:20:34.518Z,99.90
2019-02-04T20:23:02.869Z,99.90
2019-02-04T20:25:31.221Z,99.90
2019-02-04T20:28:00.905Z,99.90
2019-02-04T20:30:44.583Z,99.90
2019-02-04T20:33:04.290Z,99.90
2019-02-04T20:35:33.571Z,99.90
2019-02-04T20:38:01.970Z,99.90
2019-02-04T20:40:34.020Z,99.90
2019-02-04T20:43:02.749Z,99.90
2019-02-04T20:45:30.668Z,99.90
2019-02-04T20:47:58.750Z,99.90
2019-02-04T20:50:28.201Z,99.90
2019-02-04T20:52:56.383Z,99.90
2019-02-04T20:55:25.233Z,99.90
2019-02-04T20:57:53.287Z,99.90
2019-02-04T21:00:23.436Z,99.90
2019-02-04T21:02:51.737Z,99.90
2019-02-04T21:05:20.363Z,99.90
2019-02-04T21:07:48.541Z,99.90
2019-02-04T21:10:17.691Z,99.90
2019-02-04T21:12:45.684Z,99.90
2019-02-04T21:15:17.675Z,99.90
2019-02-04T21:17:45.678Z,99.90
2019-02-04T21:20:15.574Z,99.90
2019-02-04T21:22:43.688Z,99.90
2019-02-04T21:25:12.507Z,99.90
2019-02-04T21:27:41.037Z,99.90
2019-02-04T21:30:11.803Z,99.90
2019-02-04T21:32:40.942Z,99.90
2019-02-04T21:35:09.396Z,99.90
2019-02-04T21:37:41.407Z,99.90
2019-02-04T21:40:12.103Z,99.90
2019-02-04T21:42:40.963Z,99.90
2019-02-04T21:45:10.672Z,99.90
2019-02-04T21:47:39.304Z,99.90
2019-02-04T21:50:09.584Z,99.90
2019-02-04T21:52:38.275Z,99.90
2019-02-04T21:55:08.572Z,99.90
2019-02-04T21:57:36.247Z,99.90
2019-02-04T22:00:05.601Z,99.90
2019-02-04T22:02:33.617Z,99.90
2019-02-04T22:05:01.883Z,99.90
2019-02-04T22:07:29.821Z,99.90
2019-02-04T22:09:58.100Z,99.90
2019-02-04T22:12:26.545Z,99.90
2019-02-04T22:14:54.641Z,99.90
2019-02-04T22:17:23.312Z,99.90
2019-02-04T22:19:51.470Z,99.90
2019-02-04T22:22:20.021Z,99.90
2019-02-04T22:24:48.058Z,99.90
2019-02-04T22:27:16.187Z,99.90
2019-02-04T22:29:44.273Z,99.90
2019-02-04T22:32:12.906Z,99.90
2019-02-04T22:34:41.342Z,99.90
2019-02-04T22:37:09.307Z,99.90
2019-02-04T22:39:37.472Z,99.90
2019-02-04T22:42:05.507Z,99.90
2019-02-04T22:44:33.535Z,99.90
2019-02-04T22:47:02.457Z,99.90
2019-02-04T22:49:31.052Z,99.90
2019-02-04T22:51:59.478Z,99.90
2019-02-04T22:54:27.533Z,99.90
2019-02-04T22:56:55.689Z,99.90
2019-02-04T22:59:26.382Z,99.90
2019-02-04T23:01:55.704Z,99.90
2019-02-04T23:04:24.131Z,99.90
2019-02-04T23:06:52.027Z,99.90
2019-02-04T23:09:20.026Z,99.90
2019-02-04T23:11:48.029Z,99.90
2019-02-04T23:14:16.050Z,99.90
2019-02-04T23:16:44.077Z,99.90
2019-02-04T23:19:12.026Z,99.90
2019-02-04T23:21:40.431Z,99.90
2019-02-04T23:24:08.557Z,99.90
2019-02-04T23:26:36.657Z,99.90
2019-02-04T23:29:04.722Z,99.90
2019-02-04T23:31:33.034Z,99.90
2019-02-04T23:34:00.981Z,99.90
2019-02-04T23:36:29.447Z,99.90
2019-02-04T23:38:57.445Z,99.90
2019-02-04T23:41:25.401Z,99.90
2019-02-04T23:43:53.435Z,99.90
2019-02-04T23:46:21.700Z,99.90
2019-02-04T23:48:49.677Z,99.90
2019-02-04T23:51:17.581Z,99.90
2019-02-04T23:53:45.882Z,99.90
2019-02-04T23:56:13.875Z,99.90
2019-02-04T23:59:16.331Z,99.90
